Albion, Nebraska
Current Conditions -  °F | °C
As of 3:15 PM on Sunday 21 Dec 2014 (Local Time) from KBVN Reporting Station
Haze Haze  
Wind Chill: 29°   Ceiling: 400
Heat Index: 38°   Visibility: 2.5mi
Dew Point: 36°   Wind: 14mph
Humidity: 92%   Direction: 190°S
Pressure: 29.61"   Gusts: 22mph
Location:  41.69°N, 98°W
Report Text: KBVN 212115Z AUTO 19012G19KT 2 1/2SM BR OVC004 03/02 A2961 RMK AO2 T00320020
Loading
Personal Weather Stations






























Interactive Weather Map New forecast layout! Learn more

10-Day Weather Forecast

Advertisements
Track Severe Weather on mobile